createdAt,value
2019-04-29T00:03:26.198Z,65.65
2019-04-29T00:08:31.461Z,65.72
2019-04-29T00:13:36.621Z,66.19
2019-04-29T00:18:52.313Z,66.66
2019-04-29T00:24:04.140Z,67.28
2019-04-29T00:29:05.366Z,67.81
2019-04-29T00:34:10.519Z,67.45
2019-04-29T00:39:49.876Z,67.60
2019-04-29T00:44:55.034Z,67.56
2019-04-29T00:50:00.194Z,68.37
2019-04-29T00:55:09.900Z,68.21
2019-04-29T01:00:23.640Z,68.09
2019-04-29T01:05:29.098Z,68.42
2019-04-29T01:10:34.264Z,68.46
2019-04-29T01:15:40.327Z,68.75
2019-04-29T01:20:46.138Z,68.81
2019-04-29T01:25:55.062Z,68.68
2019-04-29T01:31:11.875Z,68.69
2019-04-29T01:36:36.032Z,68.69
2019-04-29T01:42:05.230Z,68.57
2019-04-29T01:47:10.403Z,68.81
2019-04-29T01:52:15.550Z,68.51
2019-04-29T01:57:20.789Z,68.27
2019-04-29T02:02:26.047Z,68.24
2019-04-29T02:07:31.227Z,67.96
2019-04-29T02:12:36.387Z,67.83
2019-04-29T02:17:41.551Z,68.58
2019-04-29T02:23:05.034Z,69.26
2019-04-29T02:28:10.195Z,69.42
2019-04-29T02:33:15.364Z,69.82
2019-04-29T02:38:31.269Z,69.91
2019-04-29T02:43:37.996Z,69.81
2019-04-29T02:48:43.156Z,70.00
2019-04-29T02:53:48.461Z,70.25
2019-04-29T02:58:59.712Z,70.02
2019-04-29T03:04:19.938Z,69.66
2019-04-29T03:09:25.122Z,69.57
2019-04-29T03:14:30.385Z,68.90
2019-04-29T03:19:38.616Z,68.87
2019-04-29T03:24:44.114Z,68.63
2019-04-29T03:29:49.347Z,69.00
2019-04-29T03:34:55.006Z,69.86
2019-04-29T03:40:01.490Z,70.04
2019-04-29T03:45:08.000Z,70.28
2019-04-29T03:50:13.816Z,70.22
2019-04-29T03:55:37.683Z,70.28
2019-04-29T04:00:26.942Z,70.37
2019-04-29T04:05:38.462Z,70.33
2019-04-29T04:10:43.645Z,70.31
2019-04-29T04:15:48.856Z,70.38
2019-04-29T04:20:54.425Z,70.57
2019-04-29T04:25:59.601Z,70.60
2019-04-29T04:31:07.037Z,70.28
2019-04-29T04:36:12.647Z,70.26
2019-04-29T04:41:17.820Z,70.16
2019-04-29T04:46:25.108Z,70.14
2019-04-29T04:51:30.618Z,70.21
2019-04-29T04:56:37.269Z,70.36
2019-04-29T05:01:43.897Z,70.35
2019-04-29T05:06:49.538Z,70.31
2019-04-29T05:11:55.509Z,70.30
2019-04-29T05:17:01.049Z,70.46
2019-04-29T05:22:06.670Z,70.35
2019-04-29T05:27:13.060Z,70.18
2019-04-29T05:32:18.703Z,70.15
2019-04-29T05:37:32.646Z,69.84
2019-04-29T05:42:39.169Z,69.95
2019-04-29T05:47:47.701Z,69.85
2019-04-29T05:53:01.803Z,69.82
2019-04-29T05:58:13.246Z,69.72
2019-04-29T06:03:18.454Z,69.57
2019-04-29T06:08:24.041Z,67.17
2019-04-29T06:13:30.220Z,68.18
2019-04-29T06:18:35.526Z,67.62
2019-04-29T06:23:41.072Z,66.35
2019-04-29T06:28:46.776Z,66.05
2019-04-29T06:33:52.099Z,66.06
2019-04-29T06:38:58.319Z,66.17
2019-04-29T06:44:06.730Z,66.21
2019-04-29T06:49:11.828Z,66.43
2019-04-29T06:54:17.001Z,66.10
2019-04-29T06:59:23.842Z,65.93
2019-04-29T07:04:30.743Z,65.94
2019-04-29T07:09:37.389Z,65.67
2019-04-29T07:14:42.581Z,65.77
2019-04-29T07:19:47.770Z,65.80
2019-04-29T07:24:52.939Z,64.96
2019-04-29T07:30:01.853Z,65.17
2019-04-29T07:35:09.908Z,64.83
2019-04-29T07:40:14.050Z,64.61
2019-04-29T07:45:43.656Z,64.79
2019-04-29T07:50:38.429Z,63.37
2019-04-29T07:55:44.829Z,63.56
2019-04-29T08:00:50.273Z,63.48
2019-04-29T08:05:55.495Z,63.77
2019-04-29T08:11:01.581Z,63.64
2019-04-29T08:16:07.604Z,63.99
2019-04-29T08:21:14.407Z,64.47
2019-04-29T08:26:20.031Z,64.91
2019-04-29T08:31:25.716Z,65.65
2019-04-29T08:36:31.699Z,66.34
2019-04-29T08:41:36.948Z,66.67
2019-04-29T08:46:51.689Z,67.09
2019-04-29T08:51:53.423Z,68.09
2019-04-29T08:57:03.118Z,67.70
2019-04-29T09:02:10.306Z,68.70
2019-04-29T09:07:17.472Z,68.79
2019-04-29T15:45:34.247Z,72.61
2019-04-29T15:50:39.466Z,72.50
2019-04-29T15:55:44.627Z,72.53
2019-04-29T16:00:50.077Z,72.55
2019-04-29T16:06:21.176Z,72.46
2019-04-29T16:11:36.302Z,72.47
2019-04-29T16:16:42.758Z,72.58
2019-04-29T16:21:48.398Z,72.54
2019-04-29T16:26:54.020Z,72.47
2019-04-29T16:32:02.373Z,72.42
2019-04-29T16:37:06.495Z,72.44
2019-04-29T16:42:19.953Z,72.41
2019-04-29T16:47:26.371Z,72.23
2019-04-29T16:52:31.625Z,72.20
2019-04-29T16:57:36.859Z,72.16
2019-04-29T17:02:42.034Z,72.01
2019-04-29T17:07:48.925Z,72.07
2019-04-29T17:12:54.166Z,72.03
2019-04-29T17:17:59.255Z,71.82
2019-04-29T17:23:05.083Z,71.83
2019-04-29T17:28:25.468Z,71.87
2019-04-29T17:33:49.218Z,71.94
2019-04-29T17:38:50.273Z,72.01
2019-04-29T17:44:18.697Z,71.88
2019-04-29T17:54:55.059Z,72.13
2019-04-29T18:00:22.861Z,72.25
2019-04-29T18:05:54.336Z,72.31
2019-04-29T18:10:53.361Z,72.35
2019-04-29T18:16:04.018Z,72.50
2019-04-29T18:21:18.124Z,72.56
2019-04-29T18:26:35.821Z,72.67
2019-04-29T18:31:41.093Z,72.73
2019-04-29T18:36:46.183Z,72.72
2019-04-29T18:41:51.371Z,72.81
2019-04-29T18:46:57.303Z,72.95
2019-04-29T18:52:05.708Z,72.99
2019-04-29T18:57:09.797Z,73.08
2019-04-29T19:02:15.892Z,73.17
2019-04-29T19:07:21.239Z,73.28
2019-04-29T19:12:26.484Z,73.35
2019-04-29T19:17:36.755Z,73.37
2019-04-29T19:22:39.909Z,73.39
2019-04-29T19:27:45.551Z,73.41
2019-04-29T19:32:53.965Z,73.37
2019-04-29T19:37:58.439Z,73.36
2019-04-29T19:43:05.963Z,73.36
2019-04-29T19:48:10.997Z,73.36
2019-04-29T19:53:16.704Z,73.38
2019-04-29T19:58:28.529Z,73.40
2019-04-29T20:03:36.308Z,73.37
2019-04-29T20:08:51.055Z,73.24
2019-04-29T20:14:01.226Z,73.17
2019-04-29T20:19:28.271Z,73.13
2019-04-29T20:24:37.145Z,72.74
2019-04-29T20:29:43.018Z,72.34
2019-04-29T20:34:48.503Z,72.05
2019-04-29T20:39:57.228Z,71.82
2019-04-29T20:45:00.858Z,71.74
2019-04-29T20:50:08.997Z,71.88
2019-04-29T20:55:15.948Z,71.98
2019-04-29T21:00:24.826Z,71.87
2019-04-29T21:05:29.454Z,71.89
2019-04-29T21:10:37.931Z,71.69
2019-04-29T21:15:52.302Z,71.60
2019-04-29T21:20:59.548Z,71.70
2019-04-29T21:26:08.678Z,71.49
2019-04-29T21:31:16.671Z,71.58
2019-04-29T21:36:48.971Z,71.65
2019-04-29T21:42:02.335Z,71.70
2019-04-29T21:47:08.140Z,71.68
2019-04-29T21:52:15.238Z,71.72
2019-04-29T21:57:23.735Z,71.63
2019-04-29T22:02:27.198Z,71.44
2019-04-29T22:07:32.308Z,71.71
2019-04-29T22:12:37.714Z,71.69
2019-04-29T22:17:54.408Z,71.52
2019-04-29T22:22:49.676Z,71.46
2019-04-29T22:27:55.680Z,70.98
2019-04-29T22:33:00.915Z,70.90
2019-04-29T22:38:07.860Z,70.57
2019-04-29T22:43:18.562Z,70.36
2019-04-29T22:48:25.019Z,70.38
2019-04-29T22:53:30.433Z,70.45
2019-04-29T22:58:39.498Z,70.04
2019-04-29T23:03:42.302Z,70.33
2019-04-29T23:08:47.487Z,70.45
2019-04-29T23:13:52.918Z,70.52
2019-04-29T23:18:58.086Z,70.55
2019-04-29T23:24:26.119Z,70.80
2019-04-29T23:29:31.274Z,70.73
2019-04-29T23:34:36.453Z,70.52
2019-04-29T23:39:41.618Z,70.26
2019-04-29T23:44:46.774Z,70.20
2019-04-29T23:49:51.858Z,70.13
2019-04-29T23:54:57.774Z,70.02
